Time;durP1;ratioP1;P1;durP2;ratioP2;P2;SDS_P1;SDS_P2;PMS_P1;PMS_P2;Temp;Humidity;BMP_temperature;BMP_pressure;BME280_temperature;BME280_humidity;BME280_pressure;Samples;Min_cycle;Max_cycle;Signal;HPM_P1;HPM_P2
2022/06/19 00:00:10;;;;;;;4.88;2.10;;;;;;;17.22;75.28;100774.72;5029190;28;20116;-70
2022/06/19 00:02:36;;;;;;;10.85;3.13;;;;;;;17.21;74.19;100770.38;5029159;28;20082;-69
2022/06/19 00:05:02;;;;;;;4.95;1.73;;;;;;;17.19;73.69;100767.94;5029045;28;20033;-70
2022/06/19 00:07:27;;;;;;;6.18;2.63;;;;;;;17.19;73.72;100765.22;5028971;28;20029;-70
2022/06/19 00:09:53;;;;;;;8.68;2.05;;;;;;;17.16;74.09;100760.34;5028918;28;20034;-69
2022/06/19 00:12:19;;;;;;;10.90;3.08;;;;;;;17.12;74.16;100764.56;5028755;28;20037;-69
2022/06/19 00:14:45;;;;;;;4.50;1.63;;;;;;;17.11;73.13;100770.19;5028140;28;20116;-69
2022/06/19 00:17:11;;;;;;;9.93;2.08;;;;;;;17.02;72.28;100777.84;5028659;28;20120;-69
2022/06/19 00:19:37;;;;;;;6.05;2.47;;;;;;;16.96;72.46;100763.47;5028763;28;20171;-70
2022/06/19 00:22:03;;;;;;;7.72;2.05;;;;;;;16.93;72.58;100763.94;5011137;28;20030;-70
2022/06/19 00:24:31;;;;;;;8.25;2.45;;;;;;;16.86;72.88;100758.69;5028008;28;20400;-69
2022/06/19 00:26:57;;;;;;;8.68;2.72;;;;;;;16.80;73.40;100759.66;5028325;28;20021;-69
2022/06/19 00:29:23;;;;;;;8.82;3.25;;;;;;;16.77;73.32;100752.06;5028645;28;20037;-69
2022/06/19 00:31:48;;;;;;;9.27;3.83;;;;;;;16.77;72.95;100754.75;5030728;28;20091;-70
2022/06/19 00:34:13;;;;;;;6.30;2.03;;;;;;;16.69;73.33;100756.97;5032340;28;20120;-69
2022/06/19 00:36:39;;;;;;;9.68;2.63;;;;;;;16.64;73.95;100758.53;5032313;28;20037;-69
2022/06/19 00:39:04;;;;;;;15.23;3.30;;;;;;;16.61;73.25;100764.38;5032383;28;20508;-69
2022/06/19 00:41:39;;;;;;;6.88;2.58;;;;;;;16.54;73.45;100769.09;5032230;28;20044;-69
2022/06/19 00:44:07;;;;;;;9.02;2.25;;;;;;;16.48;72.71;100788.88;5032279;28;20082;-69
2022/06/19 00:46:41;;;;;;;9.52;3.55;;;;;;;16.43;71.78;100784.22;5032168;28;20168;-69
2022/06/19 00:49:18;;;;;;;7.95;3.35;;;;;;;16.34;72.71;100777.53;5031912;28;20130;-69
2022/06/19 00:51:44;;;;;;;8.55;2.30;;;;;;;16.27;72.47;100771.50;5031627;28;20087;-70
2022/06/19 00:54:13;;;;;;;7.55;2.50;;;;;;;16.24;72.59;100779.19;5031880;28;20029;-69
2022/06/19 00:56:39;;;;;;;10.88;2.78;;;;;;;16.14;72.55;100788.69;5031934;28;20056;-69
2022/06/19 00:59:06;;;;;;;7.28;2.25;;;;;;;16.12;72.79;100795.38;5031860;28;20025;-70
2022/06/19 01:01:32;;;;;;;10.32;2.33;;;;;;;16.09;71.31;100798.53;5031548;28;20037;-69
2022/06/19 01:04:15;;;;;;;12.23;4.63;;;;;;;16.05;71.24;100786.59;5031465;28;21004;-70
2022/06/19 01:06:40;;;;;;;9.05;2.47;;;;;;;15.99;71.50;100780.28;5031725;28;20029;-69
2022/06/19 01:09:06;;;;;;;3.13;1.80;;;;;;;15.95;72.01;100773.72;5031620;28;20503;-69
2022/06/19 01:11:34;;;;;;;11.27;4.00;;;;;;;15.93;72.16;100773.16;5031806;28;20033;-70
2022/06/19 01:14:02;;;;;;;7.50;2.17;;;;;;;15.89;72.05;100772.78;5031345;28;20044;-69
2022/06/19 01:16:28;;;;;;;5.20;2.28;;;;;;;15.86;71.44;100764.38;5030703;28;20029;-69
2022/06/19 01:18:54;;;;;;;8.85;2.42;;;;;;;15.81;72.00;100753.50;5031271;28;20034;-69
2022/06/19 01:21:34;;;;;;;5.20;2.03;;;;;;;15.78;71.51;100765.53;5031546;28;20034;-70
2022/06/19 01:24:20;;;;;;;12.10;2.58;;;;;;;15.73;71.44;100787.75;5030134;28;20473;-69
2022/06/19 01:26:50;;;;;;;10.02;2.97;;;;;;;15.76;71.38;100878.72;5030980;28;20404;-69
2022/06/19 01:29:18;;;;;;;9.20;3.20;;;;;;;15.86;70.56;100966.09;5029733;28;20033;-68
2022/06/19 01:31:49;;;;;;;9.77;2.42;;;;;;;15.87;69.92;100916.63;5031290;28;20033;-69
2022/06/19 01:34:28;;;;;;;9.10;2.33;;;;;;;15.83;69.27;100840.16;5031341;28;20033;-69
2022/06/19 01:37:07;;;;;;;6.90;2.10;;;;;;;15.68;68.91;100841.38;5031257;28;20072;-69
2022/06/19 01:39:59;;;;;;;9.32;2.92;;;;;;;15.65;68.57;100895.59;5031285;28;20372;-68
2022/06/19 01:42:24;;;;;;;7.60;2.77;;;;;;;15.63;68.01;100880.75;5027522;28;20037;-69
2022/06/19 01:44:53;;;;;;;8.43;1.77;;;;;;;15.55;68.18;100841.56;5031010;28;20124;-70
2022/06/19 01:47:18;;;;;;;11.65;2.95;;;;;;;15.45;68.49;100833.25;5030919;28;20131;-69
2022/06/19 01:49:50;;;;;;;10.73;3.58;;;;;;;15.36;68.15;100858.81;5030997;28;20112;-69
2022/06/19 01:52:17;;;;;;;8.05;2.95;;;;;;;15.36;67.95;100881.13;5030742;28;20025;-64
2022/06/19 01:54:49;;;;;;;11.40;2.38;;;;;;;15.30;67.46;100869.44;5030950;28;21019;-64
2022/06/19 01:57:16;;;;;;;7.13;2.58;;;;;;;15.25;66.73;100863.09;5030770;28;20029;-64
2022/06/19 01:59:44;;;;;;;10.20;3.13;;;;;;;15.16;66.66;100881.38;5029504;28;20032;-64
2022/06/19 02:02:12;;;;;;;9.70;2.38;;;;;;;15.11;66.02;100875.84;5030452;28;20025;-65
2022/06/19 02:04:39;;;;;;;11.45;2.38;;;;;;;15.02;65.67;100864.63;5030409;28;20108;-65
2022/06/19 02:07:10;;;;;;;14.93;3.10;;;;;;;14.97;66.01;100879.78;5030600;28;20033;-64
2022/06/19 02:09:36;;;;;;;9.70;2.42;;;;;;;14.94;65.11;100880.22;5030532;28;20033;-64
2022/06/19 02:12:03;;;;;;;8.63;3.10;;;;;;;14.89;64.19;100872.84;5030583;28;20029;-65
2022/06/19 02:14:30;;;;;;;9.25;1.40;;;;;;;14.90;63.93;100887.88;5030453;28;20022;-65
2022/06/19 02:16:56;;;;;;;7.57;2.20;;;;;;;14.77;63.02;100878.13;5030424;28;20033;-64
2022/06/19 02:19:21;;;;;;;7.30;2.03;;;;;;;14.74;62.88;100883.13;5028994;28;20033;-65
2022/06/19 02:21:52;;;;;;;10.23;1.90;;;;;;;14.77;63.08;100890.72;5029716;28;20026;-64
2022/06/19 02:24:21;;;;;;;6.60;1.60;;;;;;;14.76;61.77;100889.91;5030408;28;20587;-65
2022/06/19 02:26:48;;;;;;;11.48;1.95;;;;;;;14.76;61.46;100878.34;5030377;28;20108;-64
2022/06/19 02:29:16;;;;;;;11.30;2.13;;;;;;;14.74;61.84;100883.13;5029509;28;20029;-65
2022/06/19 02:31:44;;;;;;;11.30;3.13;;;;;;;14.61;62.12;100881.41;5030230;28;20094;-65
2022/06/19 02:34:21;;;;;;;7.03;1.20;;;;;;;14.63;61.71;100890.06;5030180;28;20021;-65
2022/06/19 02:36:55;;;;;;;5.90;2.03;;;;;;;14.59;61.63;100887.00;5030194;28;20029;-64
2022/06/19 02:39:29;;;;;;;8.88;1.92;;;;;;;14.61;61.22;100892.94;5030306;28;20029;-65
2022/06/19 02:42:09;;;;;;;8.88;1.42;;;;;;;14.59;60.66;100910.31;5030034;28;20041;-64
2022/06/19 02:44:40;;;;;;;11.20;2.05;;;;;;;14.61;60.94;100908.25;5029896;28;20495;-64
2022/06/19 02:47:07;;;;;;;4.60;2.65;;;;;;;14.62;59.80;100909.91;5029873;28;20034;-64
2022/06/19 02:49:33;;;;;;;4.80;1.80;;;;;;;14.61;59.54;100902.88;5029728;28;20029;-65
2022/06/19 02:52:00;;;;;;;9.88;1.98;;;;;;;14.61;59.27;100895.63;5029942;28;20060;-64
2022/06/19 02:54:26;;;;;;;8.27;1.73;;;;;;;14.60;59.45;100902.06;5029613;28;20021;-65
2022/06/19 02:56:51;;;;;;;6.03;1.90;;;;;;;14.60;59.33;100879.78;5029843;28;20065;-64
2022/06/19 02:59:17;;;;;;;4.82;1.38;;;;;;;14.59;59.27;100880.78;5029872;28;20064;-64
2022/06/19 03:01:42;;;;;;;10.05;1.92;;;;;;;14.55;59.51;100883.13;5028922;28;20048;-64
2022/06/19 03:04:18;;;;;;;4.50;1.30;;;;;;;14.54;59.43;100897.59;5029375;28;20064;-64
2022/06/19 03:06:44;;;;;;;8.60;2.80;;;;;;;14.57;59.49;100923.97;5029367;28;20398;-65
2022/06/19 03:09:09;;;;;;;9.18;1.52;;;;;;;14.60;59.33;100945.00;5029436;28;20033;-65
2022/06/19 03:11:35;;;;;;;8.95;1.20;;;;;;;14.67;59.96;101012.88;5029454;28;20120;-65
2022/06/19 03:14:00;;;;;;;7.30;1.70;;;;;;;14.73;59.11;101005.81;5029451;28;20599;-64
2022/06/19 03:16:26;;;;;;;4.55;1.58;;;;;;;14.80;59.00;100970.81;5029377;28;20041;-64
2022/06/19 03:18:52;;;;;;;7.55;1.90;;;;;;;14.78;59.85;100952.28;5028858;28;20029;-65
2022/06/19 03:21:18;;;;;;;9.07;2.38;;;;;;;14.77;60.15;100950.59;5029115;28;20392;-64
2022/06/19 03:23:44;;;;;;;5.90;1.67;;;;;;;14.77;60.80;100925.63;5028724;28;20104;-65
2022/06/19 03:26:09;;;;;;;6.75;1.35;;;;;;;14.73;60.78;100919.91;5011552;28;20136;-65
2022/06/19 03:28:34;;;;;;;10.88;2.05;;;;;;;14.71;61.07;100923.84;5029198;28;20038;-65
2022/06/19 03:31:00;;;;;;;6.88;1.92;;;;;;;14.67;61.28;100899.28;5028341;28;20083;-65
2022/06/19 03:33:25;;;;;;;9.43;1.80;;;;;;;14.62;61.39;100893.78;5029208;28;20069;-64
2022/06/19 03:35:54;;;;;;;7.57;2.17;;;;;;;14.55;61.39;100887.66;5029231;28;20044;-65
2022/06/19 03:38:20;;;;;;;12.85;1.42;;;;;;;14.52;61.49;100917.59;5029149;28;20583;-65
2022/06/19 03:40:45;;;;;;;5.45;1.17;;;;;;;14.49;61.45;100924.22;5029048;28;20021;-65
2022/06/19 03:43:11;;;;;;;5.82;1.90;;;;;;;14.47;61.40;100926.31;5029074;28;20079;-65
2022/06/19 03:45:36;;;;;;;10.80;2.22;;;;;;;14.46;60.61;100897.81;5029058;28;20033;-65
2022/06/19 03:48:02;;;;;;;5.47;0.82;;;;;;;14.40;60.71;100874.56;5027622;28;20053;-64
2022/06/19 03:50:28;;;;;;;7.28;2.08;;;;;;;14.33;61.00;100863.91;5028931;28;20033;-64
2022/06/19 03:52:53;;;;;;;5.22;1.58;;;;;;;14.31;60.07;100852.56;5029149;28;20025;-64
2022/06/19 03:55:19;;;;;;;4.28;1.13;;;;;;;14.27;60.44;100864.78;5028591;28;20042;-65
2022/06/19 03:57:44;;;;;;;7.82;2.35;;;;;;;14.24;61.00;100859.84;5029108;28;20032;-65
2022/06/19 04:00:14;;;;;;;5.65;1.40;;;;;;;14.19;61.07;100855.13;5028994;28;20445;-65
2022/06/19 04:02:39;;;;;;;4.78;0.95;;;;;;;14.21;61.00;100920.13;5028762;28;20481;-65
2022/06/19 04:05:05;;;;;;;2.30;1.27;;;;;;;14.27;61.15;100966.72;5028754;28;20025;-64
2022/06/19 04:07:30;;;;;;;8.57;1.38;;;;;;;14.37;60.51;100972.41;5032302;28;20040;-64
2022/06/19 04:10:00;;;;;;;6.80;1.38;;;;;;;14.40;61.03;100920.19;5032701;28;20393;-65
2022/06/19 04:12:25;;;;;;;7.80;1.00;;;;;;;14.37;60.98;100924.13;5032723;28;20472;-64
2022/06/19 04:14:52;;;;;;;10.63;1.58;;;;;;;14.35;60.41;100912.78;5032352;28;20029;-64
2022/06/19 04:17:17;;;;;;;5.03;1.48;;;;;;;14.33;60.37;100873.78;5032831;28;20044;-65
2022/06/19 04:19:43;;;;;;;3.70;0.90;;;;;;;14.25;60.27;100851.59;5032607;28;20026;-65
2022/06/19 04:22:08;;;;;;;5.70;0.85;;;;;;;14.28;60.23;100836.91;5032052;28;20095;-65
2022/06/19 04:24:33;;;;;;;3.45;0.93;;;;;;;14.25;60.79;100829.28;5032211;28;20124;-65
2022/06/19 04:27:04;;;;;;;8.82;1.20;;;;;;;14.27;60.23;100788.84;5032493;28;20044;-65
2022/06/19 04:29:29;;;;;;;4.97;0.93;;;;;;;14.28;60.60;100767.16;5032467;28;20377;-65
2022/06/19 04:31:56;;;;;;;7.85;1.92;;;;;;;14.29;60.68;100744.66;5032291;28;20025;-65
2022/06/19 04:34:21;;;;;;;4.97;1.08;;;;;;;14.36;60.59;100731.16;5032474;28;20025;-65
2022/06/19 04:36:46;;;;;;;6.32;1.67;;;;;;;14.34;61.16;100731.38;5032315;28;20033;-65
2022/06/19 04:39:12;;;;;;;6.55;2.35;;;;;;;14.38;61.42;100721.00;5032333;28;20037;-65
2022/06/19 04:41:40;;;;;;;8.75;1.92;;;;;;;14.41;60.53;100710.66;5032307;28;20057;-65
2022/06/19 04:44:10;;;;;;;4.05;0.95;;;;;;;14.52;61.13;100719.00;5032005;28;20071;-65
2022/06/19 04:46:36;;;;;;;5.22;0.98;;;;;;;14.58;62.17;100715.44;5032084;28;20052;-65
2022/06/19 04:49:01;;;;;;;10.95;1.52;;;;;;;14.65;61.48;100727.72;5032099;28;20057;-64
2022/06/19 04:51:26;;;;;;;5.30;0.80;;;;;;;14.69;60.50;100736.94;5031680;28;20035;-65
2022/06/19 04:53:53;;;;;;;5.38;1.60;;;;;;;14.69;62.00;100718.16;5032044;28;20082;-65
2022/06/19 04:56:19;;;;;;;9.35;2.88;;;;;;;14.72;61.40;100713.38;5032076;28;20032;-65
2022/06/19 04:58:46;;;;;;;6.00;1.27;;;;;;;14.79;60.74;100706.88;5032240;28;20064;-65
2022/06/19 05:01:39;;;;;;;7.43;1.52;;;;;;;14.87;59.83;100701.19;5031928;28;20025;-64
2022/06/19 05:04:11;;;;;;;5.03;1.60;;;;;;;14.90;59.37;100656.94;5031622;28;20045;-65
2022/06/19 05:06:37;;;;;;;;;;;;;;;14.96;59.92;100631.03;5032340;28;20025;-65
2022/06/19 05:09:02;;;;;;;10.38;2.15;;;;;;;14.97;59.64;100654.97;5031754;28;20368;-65
2022/06/19 05:11:31;;;;;;;6.47;1.58;;;;;;;15.05;59.42;100680.69;5031774;28;20036;-65
2022/06/19 05:13:57;;;;;;;6.75;1.55;;;;;;;15.09;59.12;100700.66;5031331;28;20025;-65
2022/06/19 05:16:23;;;;;;;7.03;0.95;;;;;;;15.09;59.00;100703.34;5031385;28;20044;-65
2022/06/19 05:18:50;;;;;;;3.70;1.20;;;;;;;15.09;59.23;100711.41;5031524;28;20030;-65
2022/06/19 05:21:16;;;;;;;2.78;1.23;;;;;;;15.09;58.97;100728.38;5031532;28;20029;-65
2022/06/19 05:23:44;;;;;;;7.30;2.15;;;;;;;15.12;59.25;100727.91;5029401;28;20391;-65
2022/06/19 05:26:37;;;;;;;4.80;1.38;;;;;;;15.19;59.83;100740.41;5031194;28;20489;-65
2022/06/19 05:29:04;;;;;;;5.60;1.20;;;;;;;15.22;59.70;100751.53;5030961;28;20045;-65
2022/06/19 05:31:30;;;;;;;4.90;1.38;;;;;;;15.26;59.72;100779.56;5031193;28;20033;-65
2022/06/19 05:33:56;;;;;;;7.45;1.80;;;;;;;15.27;59.66;100773.16;5031030;28;20036;-65
2022/06/19 05:36:22;;;;;;;8.25;1.67;;;;;;;15.31;59.32;100774.31;5031369;28;20025;-65
2022/06/19 05:38:50;;;;;;;6.45;1.63;;;;;;;15.34;59.59;100779.22;5031014;28;20039;-65
2022/06/19 05:41:15;;;;;;;4.55;1.35;;;;;;;15.45;59.30;100795.59;5031227;28;20079;-65
2022/06/19 05:43:41;;;;;;;3.88;1.35;;;;;;;15.61;59.74;100818.31;5029685;28;20041;-65
2022/06/19 05:46:15;;;;;;;10.88;1.60;;;;;;;15.77;59.99;100840.03;5030750;28;20037;-65
2022/06/19 05:48:41;;;;;;;9.65;2.20;;;;;;;15.87;59.30;100870.91;5030879;28;20061;-65
2022/06/19 05:51:15;;;;;;;7.00;1.83;;;;;;;16.02;59.31;100889.28;5030762;28;20159;-65
2022/06/19 05:53:44;;;;;;;8.40;1.45;;;;;;;16.07;58.80;100892.09;5030979;28;20044;-65
2022/06/19 05:56:11;;;;;;;7.47;1.98;;;;;;;16.17;60.17;100886.97;5030799;28;20052;-65
2022/06/19 05:58:36;;;;;;;8.48;1.40;;;;;;;16.32;57.46;100873.88;5030837;28;20481;-65
2022/06/19 06:01:03;;;;;;;7.20;1.05;;;;;;;16.46;56.84;100870.94;5030759;28;20040;-65
2022/06/19 06:03:30;;;;;;;7.57;1.75;;;;;;;16.39;56.94;100865.66;5030374;28;20059;-66
2022/06/19 06:06:03;;;;;;;9.45;1.20;;;;;;;16.35;58.16;100886.88;5030516;28;20074;-65
2022/06/19 06:08:29;;;;;;;6.03;1.52;;;;;;;16.32;57.67;100894.56;5030593;28;20035;-65
2022/06/19 06:10:55;;;;;;;4.65;1.58;;;;;;;16.30;58.47;100913.66;5030551;28;20038;-65
2022/06/19 06:13:20;;;;;;;8.90;2.35;;;;;;;16.32;58.31;100949.25;5030438;28;20034;-65
2022/06/19 06:15:47;;;;;;;5.72;1.23;;;;;;;16.33;57.67;100932.03;5030473;28;20029;-65
2022/06/19 06:18:12;;;;;;;3.92;1.10;;;;;;;16.29;58.24;100944.28;5030454;28;20602;-65
2022/06/19 06:20:38;;;;;;;9.02;2.22;;;;;;;16.24;57.98;100965.72;5030508;28;20120;-65
2022/06/19 06:23:03;;;;;;;4.32;1.65;;;;;;;16.25;58.59;100966.53;5030045;28;20034;-65
2022/06/19 06:25:29;;;;;;;4.00;1.25;;;;;;;16.21;58.83;100939.25;5029581;28;20179;-65
2022/06/19 06:27:54;;;;;;;3.45;0.95;;;;;;;16.19;59.17;100963.72;5030185;28;20036;-65
2022/06/19 06:30:19;;;;;;;3.03;1.13;;;;;;;16.17;58.39;100987.34;5029854;28;20131;-65
2022/06/19 06:32:45;;;;;;;4.00;1.20;;;;;;;16.20;59.18;100996.84;5030165;28;20025;-66
2022/06/19 06:35:10;;;;;;;7.35;2.05;;;;;;;16.16;59.03;101001.03;5029967;28;20404;-65
2022/06/19 06:37:36;;;;;;;6.00;1.05;;;;;;;16.15;59.58;101035.19;5030137;28;20033;-65
2022/06/19 06:40:05;;;;;;;5.47;1.35;;;;;;;16.13;59.66;101072.25;5029855;28;20037;-65
2022/06/19 06:42:31;;;;;;;6.18;1.90;;;;;;;16.10;60.16;101075.41;5029668;28;20131;-65
2022/06/19 06:44:56;;;;;;;5.00;1.60;;;;;;;16.05;62.81;101109.44;5030016;28;20164;-65
2022/06/19 06:47:22;;;;;;;14.57;3.10;;;;;;;15.96;66.78;101143.91;5029786;28;20525;-64
2022/06/19 06:49:47;;;;;;;12.18;2.67;;;;;;;15.78;70.17;101183.19;5028677;28;20048;-64
2022/06/19 06:52:12;;;;;;;6.65;2.00;;;;;;;15.58;69.80;101171.78;5029725;28;20025;-64
2022/06/19 06:54:39;;;;;;;6.68;2.70;;;;;;;15.44;72.76;101164.91;5029744;28;20140;-64
2022/06/19 06:57:07;;;;;;;7.38;1.85;;;;;;;15.38;74.60;101179.22;5029666;28;20030;-64
2022/06/19 06:59:33;;;;;;;6.47;1.65;;;;;;;15.33;72.99;101169.13;5029640;28;20033;-64
2022/06/19 07:01:59;;;;;;;9.93;2.25;;;;;;;15.30;74.76;101153.44;5029686;28;20030;-65
2022/06/19 07:04:24;;;;;;;6.13;1.40;;;;;;;15.26;74.42;101158.44;5029665;28;20044;-64
2022/06/19 07:06:50;;;;;;;7.80;2.00;;;;;;;15.19;76.26;101138.84;5028381;28;20041;-64
2022/06/19 07:09:15;;;;;;;5.28;1.88;;;;;;;15.19;75.41;101135.34;5029517;28;20065;-63
2022/06/19 07:11:42;;;;;;;7.70;1.63;;;;;;;15.17;75.88;101140.13;5029498;28;20041;-63
2022/06/19 07:14:09;;;;;;;11.10;3.25;;;;;;;15.18;77.52;101118.41;5029663;28;20033;-63
2022/06/19 07:16:35;;;;;;;5.22;1.35;;;;;;;15.19;70.77;101127.28;5029542;28;20037;-63
2022/06/19 07:19:01;;;;;;;4.20;1.33;;;;;;;15.22;74.77;101148.34;5029393;28;20037;-63
2022/06/19 07:21:27;;;;;;;4.53;1.73;;;;;;;15.19;68.01;101152.28;5029301;28;20021;-63
2022/06/19 07:23:52;;;;;;;6.88;1.80;;;;;;;15.19;68.70;101157.66;5029626;28;20362;-63
2022/06/19 07:26:20;;;;;;;8.35;1.92;;;;;;;15.18;68.25;101176.72;5029177;28;20388;-63
2022/06/19 07:28:46;;;;;;;7.45;1.52;;;;;;;15.15;68.40;101185.22;5029239;28;20034;-63
2022/06/19 07:31:13;;;;;;;3.67;1.67;;;;;;;15.10;69.48;101184.00;5029285;28;20029;-63
2022/06/19 07:33:39;;;;;;;5.53;1.55;;;;;;;15.01;69.09;101184.47;5029238;28;20250;-63
2022/06/19 07:36:13;;;;;;;5.90;1.10;;;;;;;14.95;70.52;101177.28;5028750;28;20112;-63
2022/06/19 07:38:39;;;;;;;5.28;1.50;;;;;;;14.87;72.91;101171.13;5029043;28;20056;-63
2022/06/19 07:41:04;;;;;;;4.97;1.40;;;;;;;14.78;72.65;101139.41;5030179;28;20385;-63
2022/06/19 07:43:30;;;;;;;12.77;2.25;;;;;;;14.63;72.77;101092.19;5033415;28;20029;-64
2022/06/19 07:45:55;;;;;;;5.75;1.55;;;;;;;14.49;73.05;101063.78;5033353;28;20037;-64
2022/06/19 07:51:05;;;;;;;10.55;1.80;;;;;;;14.23;76.62;101091.59;5033255;28;20048;-64
2022/06/19 07:53:30;;;;;;;8.48;1.40;;;;;;;14.19;79.07;101085.84;5033230;28;20025;-64
2022/06/19 07:55:56;;;;;;;7.22;1.92;;;;;;;14.00;79.02;101049.22;5033181;28;20041;-64
2022/06/19 07:58:21;;;;;;;6.35;1.98;;;;;;;13.57;81.70;100991.69;5033208;28;20029;-64
2022/06/19 08:00:46;;;;;;;10.32;3.17;;;;;;;13.31;83.67;101006.00;5033088;28;20030;-64
2022/06/19 08:03:12;;;;;;;7.05;1.73;;;;;;;13.09;84.54;101044.75;5033013;28;20030;-64
2022/06/19 08:05:41;;;;;;;9.35;2.42;;;;;;;13.08;87.22;101134.97;5032960;28;20037;-64
2022/06/19 08:08:14;;;;;;;16.45;3.40;;;;;;;13.21;87.47;101168.16;5032939;28;20388;-64
2022/06/19 08:10:42;;;;;;;11.50;2.53;;;;;;;13.33;86.71;101153.94;5032986;28;20029;-64
2022/06/19 08:13:08;;;;;;;6.90;2.42;;;;;;;13.35;85.66;101113.56;5032883;28;20037;-64
2022/06/19 08:15:34;;;;;;;8.27;1.92;;;;;;;13.31;86.62;101091.72;5032632;28;20490;-64
2022/06/19 08:18:00;;;;;;;5.32;1.65;;;;;;;13.32;87.93;101053.19;5032842;28;20037;-64
2022/06/19 08:20:26;;;;;;;7.25;2.40;;;;;;;13.29;89.20;101021.47;5032667;28;20152;-64
2022/06/19 08:22:52;;;;;;;7.55;2.38;;;;;;;13.21;89.82;101055.66;5032580;28;20041;-64
2022/06/19 08:25:20;;;;;;;10.50;2.92;;;;;;;13.24;91.91;101139.09;5032765;28;20033;-64
2022/06/19 08:27:49;;;;;;;9.73;2.25;;;;;;;13.26;91.83;101173.72;5032475;28;20377;-64
2022/06/19 08:30:28;;;;;;;3.60;2.17;;;;;;;13.32;91.88;101141.59;5032026;28;20029;-64
2022/06/19 08:32:54;;;;;;;9.38;3.50;;;;;;;13.42;92.25;101109.03;5032461;28;20496;-65
2022/06/19 08:35:20;;;;;;;11.45;3.67;;;;;;;13.44;93.63;101031.94;5032450;28;20113;-64
2022/06/19 08:37:50;;;;;;;9.50;2.10;;;;;;;13.35;93.16;101004.53;5032473;28;20376;-64
2022/06/19 08:40:30;;;;;;;9.80;3.00;;;;;;;13.28;94.40;101056.47;5032452;28;20061;-65
2022/06/19 08:43:20;;;;;;;16.30;2.53;;;;;;;13.40;96.23;101056.69;5032319;28;20034;-64
2022/06/19 08:46:04;;;;;;;11.32;3.00;;;;;;;13.57;95.75;101007.78;5032187;28;20022;-65
2022/06/19 08:48:38;;;;;;;10.93;3.10;;;;;;;13.63;96.16;100991.88;5032133;28;20046;-65
2022/06/19 08:51:15;;;;;;;8.60;2.55;;;;;;;13.56;95.94;101007.97;5031967;28;20033;-64
2022/06/19 08:53:59;;;;;;;8.20;2.80;;;;;;;13.62;95.35;101041.94;5031611;28;20033;-64
2022/06/19 08:56:43;;;;;;;11.13;4.53;;;;;;;13.61;95.66;101001.97;5031899;28;20325;-65
2022/06/19 08:59:47;;;;;;;12.38;3.47;;;;;;;13.56;95.46;100968.59;5031974;28;20572;-65
2022/06/19 09:02:34;;;;;;;6.45;3.05;;;;;;;13.55;95.94;100976.84;5016004;28;20038;-64
2022/06/19 09:07:51;;;;;;;5.60;2.65;;;;;;;13.74;95.81;101000.06;5032141;28;20044;-64
2022/06/19 09:10:30;;;;;;;7.60;3.53;;;;;;;13.76;94.94;100991.81;5030402;28;20044;-66
2022/06/19 09:13:27;;;;;;;6.82;3.08;;;;;;;13.82;95.29;101017.75;5031747;28;20053;-65
2022/06/19 09:16:00;;;;;;;7.68;2.72;;;;;;;13.95;93.87;101016.88;5032066;28;20060;-64
2022/06/19 09:18:59;;;;;;;8.88;3.80;;;;;;;13.96;92.12;101019.34;5031706;28;20029;-65
2022/06/19 09:21:36;;;;;;;11.70;3.53;;;;;;;14.10;91.89;101052.25;5031190;28;20021;-66
2022/06/19 09:24:22;;;;;;;13.07;4.85;;;;;;;14.18;93.20;101078.84;5031741;28;20033;-64
2022/06/19 09:26:57;;;;;;;10.15;2.63;;;;;;;14.22;89.80;101106.84;5031487;28;20522;-65
2022/06/19 09:29:37;;;;;;;7.13;2.97;;;;;;;14.29;90.82;101130.97;5031278;28;20040;-65
2022/06/19 09:32:03;;;;;;;9.73;3.42;;;;;;;14.35;89.92;101114.00;5030581;28;20029;-65
2022/06/19 09:34:44;;;;;;;13.52;3.30;;;;;;;14.36;89.88;101115.69;5031300;28;20021;-65
2022/06/19 09:37:29;;;;;;;11.35;2.92;;;;;;;14.43;87.42;101110.25;5031118;28;20038;-65
2022/06/19 09:40:01;;;;;;;9.55;2.83;;;;;;;14.47;87.62;101114.97;5029666;28;20083;-65
2022/06/19 09:42:48;;;;;;;9.13;2.97;;;;;;;14.60;87.70;101119.47;5029785;28;20037;-65
2022/06/19 09:45:24;;;;;;;7.50;2.58;;;;;;;14.68;84.17;101108.47;5031111;28;20033;-65
2022/06/19 09:48:01;;;;;;;6.97;2.78;;;;;;;14.69;82.85;101093.19;5030993;28;20156;-66
2022/06/19 09:50:42;;;;;;;11.98;3.35;;;;;;;14.77;84.85;101063.38;5030737;28;20052;-65
2022/06/19 09:53:30;;;;;;;10.82;3.22;;;;;;;15.06;84.02;101047.63;5030995;28;20354;-65
2022/06/19 09:56:05;;;;;;;13.95;4.85;;;;;;;15.28;81.72;101042.69;5031006;28;20033;-65
2022/06/19 09:58:42;;;;;;;7.97;3.53;;;;;;;15.31;81.80;101031.47;5030913;28;20148;-65
2022/06/19 10:01:07;;;;;;;9.10;2.30;;;;;;;15.30;82.41;101033.34;5030899;28;20021;-66
2022/06/19 10:03:36;;;;;;;9.60;3.13;;;;;;;15.32;83.00;101038.47;5030031;28;20099;-65
2022/06/19 10:06:22;;;;;;;10.98;2.72;;;;;;;15.41;83.43;101030.97;5030217;28;20491;-65
2022/06/19 10:08:51;;;;;;;8.93;3.47;;;;;;;15.45;78.31;101016.00;5030798;28;20044;-65
2022/06/19 10:11:22;;;;;;;8.18;1.98;;;;;;;15.32;79.70;100998.97;5030573;28;20037;-65
2022/06/19 10:13:54;;;;;;;8.43;2.22;;;;;;;15.37;78.63;100982.19;5030683;28;20021;-65
2022/06/19 10:16:37;;;;;;;7.20;3.00;;;;;;;15.45;77.38;100986.44;5030296;28;20095;-65
2022/06/19 10:19:13;;;;;;;9.63;2.72;;;;;;;15.51;80.45;100986.38;5030562;28;20128;-65
2022/06/19 10:22:17;;;;;;;7.28;2.15;;;;;;;15.77;74.21;100977.19;5030494;28;20029;-65
2022/06/19 10:24:49;;;;;;;7.05;1.92;;;;;;;15.88;72.99;100972.88;5030447;28;20025;-64
2022/06/19 10:27:20;;;;;;;;;;;;;;;16.01;74.51;100966.50;5030838;28;20029;-65
2022/06/19 10:29:58;;;;;;;4.75;2.42;;;;;;;16.11;73.35;100949.78;5030253;28;19909;-65
2022/06/19 10:32:36;;;;;;;9.23;2.53;;;;;;;16.20;73.00;100970.75;5029668;28;20029;-65
2022/06/19 10:35:18;;;;;;;8.00;2.17;;;;;;;16.42;73.21;100972.88;5030258;28;20029;-65
2022/06/19 10:38:09;;;;;;;4.07;1.67;;;;;;;16.41;66.90;100973.94;5030339;28;20026;-65
2022/06/19 10:40:55;;;;;;;1.90;1.20;;;;;;;16.33;68.03;100993.13;5030147;28;20361;-65
2022/06/19 10:43:45;;;;;;;3.75;1.45;;;;;;;16.41;67.26;101009.75;5030068;28;20272;-65
2022/06/19 10:46:14;;;;;;;5.53;1.50;;;;;;;16.33;64.83;101018.16;5029947;28;20037;-65
2022/06/19 10:48:59;;;;;;;6.47;1.48;;;;;;;16.23;67.08;101014.41;5029873;28;20408;-64
2022/06/19 10:52:22;;;;;;;5.40;1.40;;;;;;;16.20;66.22;100994.16;5029856;28;20479;-65
2022/06/19 10:55:26;;;;;;;4.45;1.35;;;;;;;16.44;67.93;100982.34;5007598;28;20038;-65
2022/06/19 10:58:00;;;;;;;7.80;2.55;;;;;;;16.57;63.50;100981.31;5007557;28;20041;-65
2022/06/19 11:00:26;;;;;;;5.82;1.95;;;;;;;16.63;65.89;100987.66;5027441;28;20041;-65
2022/06/19 11:06:08;;;;;;;6.20;1.63;;;;;;;16.82;64.52;101026.09;5029915;28;20091;-65
2022/06/19 11:08:35;;;;;;;4.10;2.05;;;;;;;16.73;65.67;101027.47;5029455;28;20029;-65
2022/06/19 11:11:02;;;;;;;2.58;1.17;;;;;;;16.92;64.19;101047.06;5029173;28;20389;-65
2022/06/19 11:13:56;;;;;;;6.80;2.45;;;;;;;17.08;63.56;101052.59;5029039;28;20041;-65
2022/06/19 11:16:22;;;;;;;2.78;1.17;;;;;;;17.12;63.12;101027.84;5029304;28;20575;-65
2022/06/19 11:18:50;;;;;;;5.72;1.70;;;;;;;17.21;65.65;101018.34;5029471;28;20037;-65
2022/06/19 11:21:20;;;;;;;4.55;1.98;;;;;;;17.27;62.92;101037.09;5029562;28;20384;-65
2022/06/19 11:23:48;;;;;;;7.20;1.60;;;;;;;17.35;65.10;101053.97;5029458;28;20037;-65
2022/06/19 11:26:17;;;;;;;5.80;1.65;;;;;;;17.57;62.70;101059.56;5029385;28;20040;-65
2022/06/19 11:28:48;;;;;;;5.97;1.38;;;;;;;17.73;64.37;101058.78;5029311;28;20031;-65
2022/06/19 11:31:35;;;;;;;5.97;1.30;;;;;;;17.85;63.82;101056.91;5029294;28;20021;-65
2022/06/19 11:34:43;;;;;;;6.43;1.55;;;;;;;17.96;64.71;101060.63;5028959;28;20374;-65
2022/06/19 11:37:24;;;;;;;4.38;1.75;;;;;;;18.14;63.45;101065.84;5029224;28;20516;-65
2022/06/19 11:39:54;;;;;;;6.68;1.98;;;;;;;18.17;62.86;101057.25;5029165;28;20106;-65
2022/06/19 11:42:32;;;;;;;6.55;2.58;;;;;;;18.24;64.66;101072.50;5029389;28;20433;-65
2022/06/19 11:45:08;;;;;;;5.70;1.65;;;;;;;18.24;63.84;101057.13;5029184;28;20037;-65
2022/06/19 11:47:43;;;;;;;8.30;1.48;;;;;;;18.43;62.99;101059.59;5028961;28;20045;-65